메인 페이지
METAR-TAF:

METAR-TAF

공항 :

나그푸르, 인도

위도: 21-06N, 경도: 079-03E, 고도: 308m

현재 날씨관측

예보는 39분 전, 03:30시(UTC)에 발표되었습니다.
무풍
온도 27°C
습도 54%
기압 1017 hPa
시정: 3000m
연무

METAR: VANP 240330Z 00000KT 3000 HZ NSC 27/17 Q1017 NOSIG

시각: 09:39 (04:09 UTC)

예보

예보는 5 시간 9분 전, 23:00시(UTC)에 발표되었습니다.
예보 대상 시간: 24일 00시부터 25일 06시까지 (UTC)
2kt
시정: 2000m
연무
전환 중
24일 05시부터 24일 07시까지 (UTC)
북북동5kt
시정: 5000m
연무
전환 중
24일 12시부터 24일 13시까지 (UTC)
kt
시정: 4000m
연무
전환 중
24일 18시부터 24일 20시까지 (UTC)
3kt
시정: 3000m
연무
전환 중
25일 00시부터 25일 02시까지 (UTC)
시정: 2000m
연무
전환 중
25일 05시부터 25일 06시까지 (UTC)
3kt
시정: 5000m
연무

TAF: VANP 232300Z 2400/2506 01002KT 2000 HZ NSC BECMG 2405/2407 03005KT 5000 HZ BECMG 2412/2413 00000KT 4000 HZ BECMG 2418/2420 01003KT 3000 HZ BECMG 2500/2502 2000 HZ BECMG 2505/2506 09003KT 5000 HZ

4,000개 이상의 공항 관측 자료 및 예보 (METAR 및 TAF 보고).

지도상에서 검색 가능한 기상관측소가 노란 점과 빨간 점으로 표시되어 있습니다.

기상관측소 명을 보려면 표시 위로 마우스를 이동하세요.

날씨 관측과 예보를 보려면 클릭하세요.

지도 변경 : 확대하려면 엑스 표시가 있는 녹색 버튼, 축소하려면 빼기 표시가 있는 녹색 버튼, 다음 페이지의 지도를 보려면 녹색 화살표를 클릭하세요.


METAR-TAF: